FWV9FL LESO-LFRB
Flight info
| Callsign | FWV9FL |
|---|---|
| Flight time | 1h 5m |
| Altitude | 36000 |
| Route | BTZ DCT GALOF DCT TOFLO DCT QPR |
| Aircraft | A320/M-SDE3FGHIRWY/LB1 |
Departure
| Time | 2026-05-08 22:25 |
|---|---|
| Airport | San Sebastián Airport (LESO) |
Arrival
| Time | 2026-05-08 23:30 |
|---|---|
| Airport | Brest Bretagne airport (LFRB) |
| Time | Latitude | Longitude | Altitude | Speed | Heading |
|---|---|---|---|---|---|
| 2026-05-08 22:05 | 43.35597 | -1.79275 | 19 ft | 0 kts | 39° |
| 2026-05-08 22:20 | 43.35593 | -1.79267 | 17 ft | 1 kts | 117° |
| 2026-05-08 22:20 | 43.35566 | -1.79287 | 18 ft | 5 kts | 213° |
| 2026-05-08 22:21 | 43.35544 | -1.79287 | 18 ft | 0 kts | 158° |
| 2026-05-08 22:21 | 43.35544 | -1.79286 | 18 ft | 0 kts | 157° |
| 2026-05-08 22:21 | 43.35534 | -1.79271 | 20 ft | 6 kts | 129° |
| 2026-05-08 22:21 | 43.35534 | -1.79191 | 19 ft | 15 kts | 32° |
| 2026-05-08 22:22 | 43.35631 | -1.79082 | 18 ft | 19 kts | 38° |
| 2026-05-08 22:22 | 43.35739 | -1.78963 | 18 ft | 20 kts | 39° |
| 2026-05-08 22:22 | 43.35850 | -1.78841 | 20 ft | 21 kts | 33° |
| 2026-05-08 22:22 | 43.35964 | -1.78716 | 21 ft | 21 kts | 40° |
| 2026-05-08 22:23 | 43.36079 | -1.78590 | 22 ft | 21 kts | 38° |
| 2026-05-08 22:23 | 43.36152 | -1.78508 | 23 ft | 10 kts | 39° |
| 2026-05-08 22:23 | 43.36207 | -1.78437 | 24 ft | 11 kts | 67° |
| 2026-05-08 22:23 | 43.36246 | -1.78393 | 24 ft | 7 kts | 307° |
| 2026-05-08 22:24 | 43.36228 | -1.78424 | 24 ft | 4 kts | 220° |
| 2026-05-08 22:24 | 43.36220 | -1.78434 | 26 ft | 0 kts | 220° |
| 2026-05-08 22:24 | 43.36004 | -1.78670 | 22 ft | 85 kts | 218° |
| 2026-05-08 22:24 | 43.35318 | -1.79411 | 23 ft | 161 kts | 217° |
| 2026-05-08 22:25 | 43.34378 | -1.80416 | 665 ft | 174 kts | 222° |
| 2026-05-08 22:25 | 43.33521 | -1.81621 | 1587 ft | 178 kts | 233° |
| 2026-05-08 22:25 | 43.32707 | -1.82940 | 2134 ft | 192 kts | 231° |
| 2026-05-08 22:25 | 43.31810 | -1.84423 | 2445 ft | 211 kts | 232° |
| 2026-05-08 22:26 | 43.30818 | -1.86066 | 2697 ft | 236 kts | 230° |
| 2026-05-08 22:26 | 43.29696 | -1.87838 | 3276 ft | 252 kts | 226° |
| 2026-05-08 22:26 | 43.28564 | -1.89720 | 4160 ft | 259 kts | 233° |
| 2026-05-08 22:26 | 43.27669 | -1.91882 | 5150 ft | 261 kts | 239° |
| 2026-05-08 22:27 | 43.26834 | -1.94111 | 6100 ft | 264 kts | 243° |
| 2026-05-08 22:27 | 43.26321 | -1.96558 | 6939 ft | 274 kts | 266° |
| 2026-05-08 22:27 | 43.26790 | -1.99116 | 7780 ft | 286 kts | 299° |
| 2026-05-08 22:27 | 43.28239 | -2.01011 | 8662 ft | 296 kts | 332° |
| 2026-05-08 22:28 | 43.30253 | -2.01648 | 9483 ft | 304 kts | 0° |
| 2026-05-08 22:28 | 43.32377 | -2.01371 | 10261 ft | 308 kts | 11° |
| 2026-05-08 22:28 | 43.34492 | -2.00707 | 10866 ft | 319 kts | 17° |
| 2026-05-08 22:28 | 43.36655 | -1.99649 | 11134 ft | 341 kts | 25° |
| 2026-05-08 22:29 | 43.38795 | -1.98009 | 11367 ft | 362 kts | 36° |
| 2026-05-08 22:29 | 43.40722 | -1.95731 | 11906 ft | 369 kts | 50° |
| 2026-05-08 22:29 | 43.42113 | -1.92785 | 12573 ft | 368 kts | 70° |
| 2026-05-08 22:29 | 43.42770 | -1.89400 | 13251 ft | 367 kts | 85° |
| 2026-05-08 22:30 | 43.43134 | -1.85903 | 13901 ft | 372 kts | 85° |
| 2026-05-08 22:30 | 43.43496 | -1.82355 | 14491 ft | 377 kts | 85° |
| 2026-05-08 22:30 | 43.43857 | -1.78765 | 15081 ft | 381 kts | 85° |
| 2026-05-08 22:30 | 43.44221 | -1.75131 | 15665 ft | 386 kts | 85° |
| 2026-05-08 22:31 | 43.44593 | -1.71445 | 16240 ft | 391 kts | 85° |
| 2026-05-08 22:31 | 43.44970 | -1.67726 | 16829 ft | 395 kts | 85° |
| 2026-05-08 22:31 | 43.45353 | -1.63955 | 17383 ft | 400 kts | 85° |
| 2026-05-08 22:31 | 43.45979 | -1.60199 | 17915 ft | 408 kts | 71° |
| 2026-05-08 22:32 | 43.47366 | -1.56766 | 18418 ft | 416 kts | 52° |
| 2026-05-08 22:32 | 43.49454 | -1.54005 | 18885 ft | 419 kts | 34° |
| 2026-05-08 22:32 | 43.52052 | -1.52198 | 19336 ft | 419 kts | 15° |
| 2026-05-08 22:32 | 43.54907 | -1.51536 | 19835 ft | 415 kts | 357° |
| 2026-05-08 22:33 | 43.57792 | -1.51662 | 20340 ft | 416 kts | 353° |
| 2026-05-08 22:33 | 43.60697 | -1.51842 | 20831 ft | 419 kts | 353° |
| 2026-05-08 22:33 | 43.63618 | -1.52026 | 21327 ft | 422 kts | 353° |
| 2026-05-08 22:33 | 43.66559 | -1.52209 | 21816 ft | 424 kts | 353° |
| 2026-05-08 22:34 | 43.69515 | -1.52389 | 22291 ft | 427 kts | 353° |
| 2026-05-08 22:34 | 43.72492 | -1.52566 | 22753 ft | 430 kts | 353° |
| 2026-05-08 22:34 | 43.75489 | -1.52745 | 23209 ft | 433 kts | 353° |
| 2026-05-08 22:34 | 43.78509 | -1.52927 | 23620 ft | 436 kts | 353° |
| 2026-05-08 22:35 | 43.81554 | -1.53109 | 23977 ft | 439 kts | 353° |
| 2026-05-08 22:35 | 43.84619 | -1.53291 | 24367 ft | 441 kts | 354° |
| 2026-05-08 22:35 | 43.87694 | -1.53469 | 24746 ft | 443 kts | 354° |
| 2026-05-08 22:35 | 43.90783 | -1.53648 | 25099 ft | 446 kts | 354° |
| 2026-05-08 22:36 | 43.93892 | -1.53833 | 25452 ft | 448 kts | 353° |
| 2026-05-08 22:36 | 43.97019 | -1.54021 | 25799 ft | 451 kts | 353° |
| 2026-05-08 22:36 | 44.00161 | -1.54212 | 26143 ft | 453 kts | 353° |
| 2026-05-08 22:36 | 44.03322 | -1.54404 | 26501 ft | 456 kts | 353° |
| 2026-05-08 22:37 | 44.06496 | -1.54598 | 26847 ft | 458 kts | 353° |
| 2026-05-08 22:37 | 44.09648 | -1.54787 | 27186 ft | 460 kts | 354° |
| 2026-05-08 22:37 | 44.12854 | -1.54976 | 27523 ft | 462 kts | 354° |
| 2026-05-08 22:37 | 44.16077 | -1.55165 | 27855 ft | 465 kts | 353° |
| 2026-05-08 22:38 | 44.19316 | -1.55359 | 28179 ft | 467 kts | 353° |
| 2026-05-08 22:38 | 44.22568 | -1.55556 | 28499 ft | 469 kts | 353° |
| 2026-05-08 22:38 | 44.25840 | -1.55754 | 28808 ft | 471 kts | 353° |
| 2026-05-08 22:38 | 44.29127 | -1.55953 | 29101 ft | 473 kts | 353° |
| 2026-05-08 22:39 | 44.32421 | -1.56154 | 29384 ft | 475 kts | 353° |
| 2026-05-08 22:39 | 44.35734 | -1.56357 | 29671 ft | 477 kts | 353° |
| 2026-05-08 22:39 | 44.39061 | -1.56561 | 29953 ft | 479 kts | 353° |
| 2026-05-08 22:39 | 44.42397 | -1.56765 | 30219 ft | 481 kts | 354° |
| 2026-05-08 22:40 | 44.45739 | -1.56966 | 30580 ft | 480 kts | 354° |
| 2026-05-08 22:40 | 44.49073 | -1.57165 | 30912 ft | 479 kts | 354° |
| 2026-05-08 22:40 | 44.52397 | -1.57367 | 31226 ft | 479 kts | 354° |
| 2026-05-08 22:40 | 44.55735 | -1.57574 | 31542 ft | 479 kts | 354° |
| 2026-05-08 22:41 | 44.59065 | -1.57780 | 31855 ft | 479 kts | 355° |
| 2026-05-08 22:41 | 44.62391 | -1.57980 | 32173 ft | 479 kts | 355° |
| 2026-05-08 22:41 | 44.65721 | -1.58180 | 32470 ft | 479 kts | 355° |
| 2026-05-08 22:41 | 44.69051 | -1.58384 | 32768 ft | 479 kts | 355° |
| 2026-05-08 22:42 | 44.72384 | -1.58592 | 33068 ft | 479 kts | 356° |
| 2026-05-08 22:42 | 44.75719 | -1.58803 | 33380 ft | 480 kts | 356° |
| 2026-05-08 22:42 | 44.79053 | -1.59010 | 33680 ft | 480 kts | 356° |
| 2026-05-08 22:42 | 44.82389 | -1.59216 | 33974 ft | 480 kts | 356° |
| 2026-05-08 22:43 | 44.85728 | -1.59420 | 34232 ft | 480 kts | 356° |
| 2026-05-08 22:43 | 44.89024 | -1.59620 | 34492 ft | 480 kts | 356° |
| 2026-05-08 22:43 | 44.92360 | -1.59824 | 34759 ft | 480 kts | 356° |
| 2026-05-08 22:43 | 44.95701 | -1.60030 | 35011 ft | 479 kts | 356° |
| 2026-05-08 22:44 | 44.99028 | -1.60239 | 35263 ft | 479 kts | 356° |
| 2026-05-08 22:44 | 45.02359 | -1.60449 | 35509 ft | 479 kts | 356° |
| 2026-05-08 22:44 | 45.05687 | -1.60662 | 35734 ft | 479 kts | 355° |
| 2026-05-08 22:44 | 45.09017 | -1.60876 | 35908 ft | 479 kts | 355° |
| 2026-05-08 22:45 | 45.12353 | -1.61085 | 35957 ft | 480 kts | 355° |
| 2026-05-08 22:45 | 45.19023 | -1.61487 | 35961 ft | 479 kts | 356° |
| 2026-05-08 22:46 | 45.25682 | -1.61897 | 35954 ft | 478 kts | 356° |
| 2026-05-08 22:46 | 45.32337 | -1.62324 | 35950 ft | 478 kts | 356° |
| 2026-05-08 22:47 | 45.38992 | -1.62748 | 35948 ft | 478 kts | 356° |
| 2026-05-08 22:47 | 45.45642 | -1.63155 | 35949 ft | 478 kts | 356° |
| 2026-05-08 22:48 | 45.52287 | -1.63578 | 35951 ft | 478 kts | 356° |
| 2026-05-08 22:48 | 45.58929 | -1.64008 | 35949 ft | 478 kts | 357° |
| 2026-05-08 22:49 | 45.65575 | -1.64441 | 35948 ft | 478 kts | 357° |
| 2026-05-08 22:49 | 45.75553 | -1.65072 | 35946 ft | 478 kts | 357° |
| 2026-05-08 22:50 | 45.82207 | -1.65484 | 35948 ft | 478 kts | 358° |
| 2026-05-08 22:50 | 45.87735 | -1.65899 | 35948 ft | 478 kts | 353° |
| 2026-05-08 22:51 | 45.92032 | -1.67250 | 35953 ft | 477 kts | 340° |
| 2026-05-08 22:51 | 45.95086 | -1.69091 | 35950 ft | 475 kts | 330° |
| 2026-05-08 22:51 | 46.00415 | -1.74612 | 35942 ft | 473 kts | 317° |
| 2026-05-08 22:52 | 46.05359 | -1.80870 | 35934 ft | 474 kts | 317° |
| 2026-05-08 22:52 | 46.09488 | -1.86077 | 35935 ft | 475 kts | 317° |
| 2026-05-08 22:53 | 46.14453 | -1.92366 | 35943 ft | 475 kts | 317° |
| 2026-05-08 22:53 | 46.19420 | -1.98680 | 35936 ft | 476 kts | 317° |
| 2026-05-08 22:54 | 46.24392 | -2.05018 | 35950 ft | 478 kts | 317° |
| 2026-05-08 22:54 | 46.29376 | -2.11375 | 35943 ft | 478 kts | 317° |
| 2026-05-08 22:55 | 46.34366 | -2.17755 | 35951 ft | 479 kts | 317° |
| 2026-05-08 22:55 | 46.39353 | -2.24162 | 35949 ft | 479 kts | 317° |
| 2026-05-08 22:56 | 46.44342 | -2.30583 | 35942 ft | 480 kts | 317° |
| 2026-05-08 22:56 | 46.49336 | -2.37025 | 35948 ft | 480 kts | 317° |
| 2026-05-08 22:57 | 46.54338 | -2.43489 | 35975 ft | 481 kts | 317° |
| 2026-05-08 22:57 | 46.59333 | -2.49967 | 35956 ft | 481 kts | 317° |
| 2026-05-08 22:58 | 46.64324 | -2.56463 | 35954 ft | 482 kts | 317° |
| 2026-05-08 22:58 | 46.69322 | -2.62979 | 35951 ft | 482 kts | 317° |
| 2026-05-08 22:59 | 46.74323 | -2.69518 | 35958 ft | 483 kts | 317° |
| 2026-05-08 22:59 | 46.79321 | -2.76060 | 35962 ft | 483 kts | 317° |
| 2026-05-08 23:00 | 46.84317 | -2.82619 | 35959 ft | 483 kts | 317° |
| 2026-05-08 23:00 | 46.89308 | -2.89197 | 35979 ft | 483 kts | 317° |
| 2026-05-08 23:01 | 46.94304 | -2.95795 | 35980 ft | 483 kts | 316° |
| 2026-05-08 23:01 | 46.99261 | -3.02359 | 35979 ft | 483 kts | 316° |
| 2026-05-08 23:02 | 47.04241 | -3.08959 | 35980 ft | 483 kts | 316° |
| 2026-05-08 23:02 | 47.09214 | -3.15569 | 35975 ft | 482 kts | 316° |
| 2026-05-08 23:03 | 47.14208 | -3.22236 | 35971 ft | 482 kts | 316° |
| 2026-05-08 23:03 | 47.19135 | -3.28838 | 35970 ft | 482 kts | 316° |
| 2026-05-08 23:04 | 47.24095 | -3.35494 | 35980 ft | 483 kts | 316° |
| 2026-05-08 23:04 | 47.29053 | -3.42153 | 35976 ft | 483 kts | 316° |
| 2026-05-08 23:05 | 47.34002 | -3.48839 | 35966 ft | 483 kts | 316° |
| 2026-05-08 23:05 | 47.38954 | -3.55543 | 35963 ft | 483 kts | 316° |
| 2026-05-08 23:06 | 47.43913 | -3.62256 | 35967 ft | 483 kts | 316° |
| 2026-05-08 23:06 | 47.48869 | -3.68986 | 35971 ft | 484 kts | 316° |
| 2026-05-08 23:07 | 47.53815 | -3.75733 | 35964 ft | 484 kts | 316° |
| 2026-05-08 23:07 | 47.56290 | -3.79114 | 35732 ft | 485 kts | 316° |
| 2026-05-08 23:07 | 47.58773 | -3.82510 | 35241 ft | 486 kts | 316° |
| 2026-05-08 23:08 | 47.61261 | -3.85920 | 34744 ft | 488 kts | 317° |
| 2026-05-08 23:08 | 47.63754 | -3.89343 | 34265 ft | 490 kts | 317° |
| 2026-05-08 23:08 | 47.66263 | -3.92789 | 33636 ft | 493 kts | 317° |
| 2026-05-08 23:08 | 47.68810 | -3.96287 | 32400 ft | 503 kts | 317° |
| 2026-05-08 23:09 | 47.71385 | -3.99830 | 31294 ft | 509 kts | 317° |
| 2026-05-08 23:09 | 47.73998 | -4.03436 | 30262 ft | 513 kts | 317° |
| 2026-05-08 23:09 | 47.76629 | -4.06985 | 29568 ft | 507 kts | 321° |
| 2026-05-08 23:09 | 47.79497 | -4.09966 | 28900 ft | 500 kts | 330° |
| 2026-05-08 23:10 | 47.82573 | -4.12249 | 28212 ft | 492 kts | 339° |
| 2026-05-08 23:10 | 47.85799 | -4.13877 | 27536 ft | 485 kts | 344° |
| 2026-05-08 23:10 | 47.89053 | -4.15076 | 26864 ft | 477 kts | 354° |
| 2026-05-08 23:10 | 47.92336 | -4.15262 | 26212 ft | 469 kts | 6° |
| 2026-05-08 23:11 | 47.95514 | -4.14431 | 25563 ft | 460 kts | 19° |
| 2026-05-08 23:11 | 47.98454 | -4.12670 | 24874 ft | 452 kts | 31° |
| 2026-05-08 23:11 | 48.01046 | -4.10095 | 24227 ft | 444 kts | 43° |
| 2026-05-08 23:11 | 48.03245 | -4.06919 | 23594 ft | 438 kts | 49° |
| 2026-05-08 23:12 | 48.05356 | -4.03662 | 22934 ft | 434 kts | 49° |
| 2026-05-08 23:12 | 48.07440 | -4.00444 | 22361 ft | 428 kts | 49° |
| 2026-05-08 23:12 | 48.09494 | -3.97273 | 21823 ft | 421 kts | 49° |
| 2026-05-08 23:12 | 48.11525 | -3.94142 | 21288 ft | 416 kts | 49° |
| 2026-05-08 23:13 | 48.13496 | -3.91096 | 20786 ft | 410 kts | 49° |
| 2026-05-08 23:13 | 48.15468 | -3.88043 | 20265 ft | 406 kts | 49° |
| 2026-05-08 23:13 | 48.17446 | -3.84971 | 19750 ft | 402 kts | 49° |
| 2026-05-08 23:13 | 48.19346 | -3.82013 | 19213 ft | 398 kts | 49° |
| 2026-05-08 23:14 | 48.21262 | -3.79023 | 18679 ft | 396 kts | 49° |
| 2026-05-08 23:14 | 48.23161 | -3.76055 | 18110 ft | 394 kts | 49° |
| 2026-05-08 23:14 | 48.25215 | -3.73349 | 17517 ft | 395 kts | 34° |
| 2026-05-08 23:14 | 48.27732 | -3.71728 | 16952 ft | 396 kts | 14° |
| 2026-05-08 23:15 | 48.30471 | -3.71455 | 16373 ft | 396 kts | 354° |
| 2026-05-08 23:15 | 48.33114 | -3.72544 | 15783 ft | 396 kts | 334° |
| 2026-05-08 23:15 | 48.35361 | -3.74875 | 15218 ft | 393 kts | 314° |
| 2026-05-08 23:15 | 48.36962 | -3.78158 | 14635 ft | 388 kts | 294° |
| 2026-05-08 23:16 | 48.37894 | -3.81954 | 14057 ft | 385 kts | 286° |
| 2026-05-08 23:16 | 48.38701 | -3.85771 | 13545 ft | 381 kts | 285° |
| 2026-05-08 23:16 | 48.39491 | -3.89569 | 12967 ft | 379 kts | 285° |
| 2026-05-08 23:16 | 48.40271 | -3.93355 | 12375 ft | 377 kts | 285° |
| 2026-05-08 23:17 | 48.41050 | -3.97126 | 11755 ft | 376 kts | 285° |
| 2026-05-08 23:17 | 48.41824 | -4.00851 | 11102 ft | 369 kts | 285° |
| 2026-05-08 23:17 | 48.42576 | -4.04458 | 10536 ft | 353 kts | 285° |
| 2026-05-08 23:17 | 48.43288 | -4.07850 | 10374 ft | 327 kts | 285° |
| 2026-05-08 23:18 | 48.43952 | -4.11006 | 10116 ft | 310 kts | 285° |
| 2026-05-08 23:18 | 48.44594 | -4.14072 | 9886 ft | 304 kts | 285° |
| 2026-05-08 23:18 | 48.45223 | -4.17097 | 9758 ft | 302 kts | 285° |
| 2026-05-08 23:18 | 48.45845 | -4.20112 | 9540 ft | 302 kts | 285° |
| 2026-05-08 23:19 | 48.46468 | -4.23149 | 9082 ft | 303 kts | 285° |
| 2026-05-08 23:19 | 48.47090 | -4.26179 | 8599 ft | 304 kts | 285° |
| 2026-05-08 23:19 | 48.47708 | -4.29183 | 8065 ft | 297 kts | 285° |
| 2026-05-08 23:19 | 48.48315 | -4.32145 | 7424 ft | 294 kts | 285° |
| 2026-05-08 23:20 | 48.48914 | -4.35073 | 6901 ft | 291 kts | 285° |
| 2026-05-08 23:20 | 48.49512 | -4.38007 | 6384 ft | 295 kts | 285° |
| 2026-05-08 23:20 | 48.50106 | -4.40919 | 5856 ft | 288 kts | 285° |
| 2026-05-08 23:20 | 48.50697 | -4.43827 | 5345 ft | 291 kts | 285° |
| 2026-05-08 23:21 | 48.51280 | -4.46684 | 5260 ft | 277 kts | 285° |
| 2026-05-08 23:21 | 48.51836 | -4.49395 | 5198 ft | 264 kts | 285° |
| 2026-05-08 23:21 | 48.52326 | -4.51990 | 5087 ft | 251 kts | 276° |
| 2026-05-08 23:21 | 48.52359 | -4.54547 | 4968 ft | 241 kts | 257° |
| 2026-05-08 23:22 | 48.51911 | -4.56939 | 4824 ft | 236 kts | 246° |
| 2026-05-08 23:22 | 48.51371 | -4.59275 | 4675 ft | 234 kts | 246° |
| 2026-05-08 23:22 | 48.50850 | -4.61560 | 4535 ft | 225 kts | 246° |
| 2026-05-08 23:22 | 48.50360 | -4.63727 | 4411 ft | 217 kts | 246° |
| 2026-05-08 23:23 | 48.49879 | -4.65853 | 4287 ft | 213 kts | 246° |
| 2026-05-08 23:23 | 48.49397 | -4.67948 | 4169 ft | 211 kts | 242° |
| 2026-05-08 23:23 | 48.48609 | -4.69729 | 4053 ft | 200 kts | 216° |
| 2026-05-08 23:23 | 48.47484 | -4.70804 | 3931 ft | 189 kts | 194° |
| 2026-05-08 23:24 | 48.46226 | -4.71137 | 3706 ft | 182 kts | 174° |
| 2026-05-08 23:24 | 48.44963 | -4.71079 | 3510 ft | 181 kts | 173° |
| 2026-05-08 23:24 | 48.43707 | -4.71036 | 3322 ft | 181 kts | 174° |
| 2026-05-08 23:24 | 48.42453 | -4.71000 | 3216 ft | 180 kts | 173° |
| 2026-05-08 23:25 | 48.41281 | -4.70524 | 3135 ft | 174 kts | 144° |
| 2026-05-08 23:25 | 48.40497 | -4.69168 | 3024 ft | 174 kts | 114° |
| 2026-05-08 23:25 | 48.40240 | -4.67390 | 2877 ft | 174 kts | 101° |
| 2026-05-08 23:25 | 48.40060 | -4.65589 | 2734 ft | 174 kts | 101° |
| 2026-05-08 23:26 | 48.39929 | -4.63809 | 2592 ft | 169 kts | 91° |
| 2026-05-08 23:26 | 48.40176 | -4.62142 | 2470 ft | 158 kts | 75° |
| 2026-05-08 23:26 | 48.40522 | -4.60687 | 2356 ft | 140 kts | 77° |
| 2026-05-08 23:26 | 48.40831 | -4.59329 | 2245 ft | 135 kts | 78° |
| 2026-05-08 23:27 | 48.41129 | -4.58009 | 2142 ft | 132 kts | 78° |
| 2026-05-08 23:27 | 48.41423 | -4.56703 | 2048 ft | 132 kts | 78° |
| 2026-05-08 23:27 | 48.41724 | -4.55400 | 1905 ft | 132 kts | 78° |
| 2026-05-08 23:27 | 48.42019 | -4.54097 | 1697 ft | 132 kts | 78° |
| 2026-05-08 23:28 | 48.42308 | -4.52788 | 1448 ft | 131 kts | 78° |
| 2026-05-08 23:28 | 48.42575 | -4.51483 | 1248 ft | 130 kts | 78° |
| 2026-05-08 23:28 | 48.42863 | -4.50182 | 1091 ft | 131 kts | 74° |
| 2026-05-08 23:28 | 48.43171 | -4.48892 | 919 ft | 131 kts | 75° |
| 2026-05-08 23:29 | 48.43488 | -4.47611 | 816 ft | 131 kts | 74° |
| 2026-05-08 23:29 | 48.43778 | -4.46326 | 685 ft | 130 kts | 75° |
| 2026-05-08 23:29 | 48.44055 | -4.45036 | 515 ft | 129 kts | 72° |
| 2026-05-08 23:29 | 48.44355 | -4.43751 | 342 ft | 130 kts | 74° |
| 2026-05-08 23:30 | 48.44612 | -4.42611 | 309 ft | 91 kts | 71° |
| 2026-05-08 23:30 | 48.44760 | -4.41959 | 330 ft | 44 kts | 71° |
| 2026-05-08 23:30 | 48.44811 | -4.41710 | 336 ft | 15 kts | 94° |
| 2026-05-08 23:30 | 48.44739 | -4.41627 | 333 ft | 7 kts | 162° |
| 2026-05-08 23:31 | 48.44730 | -4.41623 | 333 ft | 0 kts | 162° |
| 2026-05-08 23:32 | 48.44721 | -4.41619 | 333 ft | 5 kts | 162° |
| 2026-05-08 23:32 | 48.44683 | -4.41566 | 331 ft | 8 kts | 100° |
| 2026-05-08 23:32 | 48.44683 | -4.41503 | 332 ft | 4 kts | 123° |
| 2026-05-08 23:33 | 48.44654 | -4.41484 | 332 ft | 4 kts | 161° |
| 2026-05-08 23:33 | 48.44642 | -4.41478 | 329 ft | 0 kts | 161° |